sensor_id;sensor_type;location;lat;lon;timestamp;P1;durP1;ratioP1;P2;durP2;ratioP2
20679;SDS011;10499;47.494;7.608;2023-02-26T00:01:29;0.40;;;0.40;;
20679;SDS011;10499;47.494;7.608;2023-02-26T00:03:57;0.37;;;0.37;;
20679;SDS011;10499;47.494;7.608;2023-02-26T00:06:25;0.40;;;0.40;;
20679;SDS011;10499;47.494;7.608;2023-02-26T00:08:51;0.40;;;0.40;;
20679;SDS011;10499;47.494;7.608;2023-02-26T00:11:17;0.40;;;0.40;;
20679;SDS011;10499;47.494;7.608;2023-02-26T00:13:44;0.40;;;0.40;;
20679;SDS011;10499;47.494;7.608;2023-02-26T00:18:53;0.30;;;0.30;;
20679;SDS011;10499;47.494;7.608;2023-02-26T00:21:21;0.30;;;0.30;;
20679;SDS011;10499;47.494;7.608;2023-02-26T00:23:47;0.40;;;0.40;;
20679;SDS011;10499;47.494;7.608;2023-02-26T00:26:13;0.30;;;0.30;;
20679;SDS011;10499;47.494;7.608;2023-02-26T00:28:40;0.40;;;0.40;;
20679;SDS011;10499;47.494;7.608;2023-02-26T00:31:06;0.30;;;0.30;;
20679;SDS011;10499;47.494;7.608;2023-02-26T00:33:33;0.30;;;0.30;;
20679;SDS011;10499;47.494;7.608;2023-02-26T00:36:04;0.30;;;0.30;;
20679;SDS011;10499;47.494;7.608;2023-02-26T00:38:39;0.40;;;0.40;;
20679;SDS011;10499;47.494;7.608;2023-02-26T00:41:09;0.30;;;0.30;;
20679;SDS011;10499;47.494;7.608;2023-02-26T00:43:35;0.30;;;0.30;;
20679;SDS011;10499;47.494;7.608;2023-02-26T00:51:37;0.40;;;0.40;;
20679;SDS011;10499;47.494;7.608;2023-02-26T00:56:52;0.30;;;0.30;;
20679;SDS011;10499;47.494;7.608;2023-02-26T00:59:18;0.30;;;0.30;;
20679;SDS011;10499;47.494;7.608;2023-02-26T01:01:45;0.40;;;0.40;;
20679;SDS011;10499;47.494;7.608;2023-02-26T01:04:11;0.40;;;0.40;;
20679;SDS011;10499;47.494;7.608;2023-02-26T01:06:45;0.30;;;0.30;;
20679;SDS011;10499;47.494;7.608;2023-02-26T01:09:20;0.40;;;0.40;;
20679;SDS011;10499;47.494;7.608;2023-02-26T01:11:54;0.40;;;0.40;;
20679;SDS011;10499;47.494;7.608;2023-02-26T01:14:21;0.40;;;0.40;;
20679;SDS011;10499;47.494;7.608;2023-02-26T01:16:49;0.40;;;0.40;;
20679;SDS011;10499;47.494;7.608;2023-02-26T01:19:25;0.40;;;0.40;;
20679;SDS011;10499;47.494;7.608;2023-02-26T01:24:45;0.30;;;0.30;;
20679;SDS011;10499;47.494;7.608;2023-02-26T01:27:17;0.30;;;0.30;;
20679;SDS011;10499;47.494;7.608;2023-02-26T01:29:42;0.40;;;0.40;;
20679;SDS011;10499;47.494;7.608;2023-02-26T01:32:14;0.40;;;0.40;;
20679;SDS011;10499;47.494;7.608;2023-02-26T01:34:50;0.37;;;0.37;;
20679;SDS011;10499;47.494;7.608;2023-02-26T01:40:32;0.40;;;0.40;;
20679;SDS011;10499;47.494;7.608;2023-02-26T01:43:13;0.40;;;0.40;;
20679;SDS011;10499;47.494;7.608;2023-02-26T01:45:56;0.40;;;0.40;;
20679;SDS011;10499;47.494;7.608;2023-02-26T01:48:37;0.40;;;0.40;;
20679;SDS011;10499;47.494;7.608;2023-02-26T01:51:17;0.40;;;0.40;;
20679;SDS011;10499;47.494;7.608;2023-02-26T01:54:01;0.40;;;0.40;;
20679;SDS011;10499;47.494;7.608;2023-02-26T01:56:27;0.40;;;0.40;;
20679;SDS011;10499;47.494;7.608;2023-02-26T01:58:53;0.40;;;0.40;;
20679;SDS011;10499;47.494;7.608;2023-02-26T02:01:19;0.40;;;0.40;;
20679;SDS011;10499;47.494;7.608;2023-02-26T02:03:44;0.43;;;0.43;;
20679;SDS011;10499;47.494;7.608;2023-02-26T02:06:18;0.40;;;0.40;;
20679;SDS011;10499;47.494;7.608;2023-02-26T02:08:46;0.40;;;0.40;;
20679;SDS011;10499;47.494;7.608;2023-02-26T02:11:12;0.40;;;0.40;;
20679;SDS011;10499;47.494;7.608;2023-02-26T02:16:22;0.40;;;0.40;;
20679;SDS011;10499;47.494;7.608;2023-02-26T02:19:07;0.40;;;0.40;;
20679;SDS011;10499;47.494;7.608;2023-02-26T02:27:08;0.40;;;0.40;;
20679;SDS011;10499;47.494;7.608;2023-02-26T02:29:52;0.37;;;0.37;;
20679;SDS011;10499;47.494;7.608;2023-02-26T02:32:54;0.40;;;0.40;;
20679;SDS011;10499;47.494;7.608;2023-02-26T02:35:33;0.40;;;0.40;;
20679;SDS011;10499;47.494;7.608;2023-02-26T02:38:04;0.40;;;0.40;;
20679;SDS011;10499;47.494;7.608;2023-02-26T02:40:42;0.40;;;0.40;;
20679;SDS011;10499;47.494;7.608;2023-02-26T02:43:13;0.40;;;0.40;;
20679;SDS011;10499;47.494;7.608;2023-02-26T02:46:03;0.40;;;0.40;;
20679;SDS011;10499;47.494;7.608;2023-02-26T02:48:35;0.40;;;0.40;;
20679;SDS011;10499;47.494;7.608;2023-02-26T02:51:07;0.40;;;0.40;;
20679;SDS011;10499;47.494;7.608;2023-02-26T02:53:36;0.40;;;0.40;;
20679;SDS011;10499;47.494;7.608;2023-02-26T02:59:00;0.33;;;0.33;;
20679;SDS011;10499;47.494;7.608;2023-02-26T03:01:47;0.30;;;0.30;;
20679;SDS011;10499;47.494;7.608;2023-02-26T03:04:17;0.30;;;0.30;;
20679;SDS011;10499;47.494;7.608;2023-02-26T03:06:43;0.40;;;0.40;;
20679;SDS011;10499;47.494;7.608;2023-02-26T03:09:11;0.40;;;0.40;;
20679;SDS011;10499;47.494;7.608;2023-02-26T03:11:36;0.33;;;0.33;;
20679;SDS011;10499;47.494;7.608;2023-02-26T03:14:02;0.40;;;0.40;;
20679;SDS011;10499;47.494;7.608;2023-02-26T03:24:51;0.40;;;0.40;;
20679;SDS011;10499;47.494;7.608;2023-02-26T03:29:57;0.40;;;0.40;;
20679;SDS011;10499;47.494;7.608;2023-02-26T03:32:35;0.40;;;0.40;;
20679;SDS011;10499;47.494;7.608;2023-02-26T03:38:11;0.40;;;0.40;;
20679;SDS011;10499;47.494;7.608;2023-02-26T03:41:09;0.40;;;0.40;;
20679;SDS011;10499;47.494;7.608;2023-02-26T03:43:41;0.40;;;0.40;;
20679;SDS011;10499;47.494;7.608;2023-02-26T03:46:22;0.40;;;0.40;;
20679;SDS011;10499;47.494;7.608;2023-02-26T03:48:53;0.40;;;0.40;;
20679;SDS011;10499;47.494;7.608;2023-02-26T03:51:23;0.40;;;0.40;;
20679;SDS011;10499;47.494;7.608;2023-02-26T03:54:12;0.30;;;0.30;;
20679;SDS011;10499;47.494;7.608;2023-02-26T03:56:46;0.40;;;0.40;;
20679;SDS011;10499;47.494;7.608;2023-02-26T03:59:13;0.30;;;0.30;;
20679;SDS011;10499;47.494;7.608;2023-02-26T04:01:41;0.40;;;0.40;;
20679;SDS011;10499;47.494;7.608;2023-02-26T04:04:33;0.40;;;0.40;;
20679;SDS011;10499;47.494;7.608;2023-02-26T04:07:12;0.40;;;0.40;;
20679;SDS011;10499;47.494;7.608;2023-02-26T04:09:40;0.40;;;0.40;;
20679;SDS011;10499;47.494;7.608;2023-02-26T04:12:06;0.37;;;0.37;;
20679;SDS011;10499;47.494;7.608;2023-02-26T04:14:32;0.40;;;0.40;;
20679;SDS011;10499;47.494;7.608;2023-02-26T04:16:57;0.30;;;0.30;;
20679;SDS011;10499;47.494;7.608;2023-02-26T04:19:23;0.40;;;0.40;;
20679;SDS011;10499;47.494;7.608;2023-02-26T04:21:49;0.40;;;0.40;;
20679;SDS011;10499;47.494;7.608;2023-02-26T04:24:15;0.40;;;0.40;;
20679;SDS011;10499;47.494;7.608;2023-02-26T04:26:40;0.30;;;0.30;;
20679;SDS011;10499;47.494;7.608;2023-02-26T04:29:06;0.40;;;0.40;;
20679;SDS011;10499;47.494;7.608;2023-02-26T04:31:31;0.40;;;0.40;;
20679;SDS011;10499;47.494;7.608;2023-02-26T04:33:57;0.40;;;0.40;;
20679;SDS011;10499;47.494;7.608;2023-02-26T04:36:23;0.40;;;0.40;;
20679;SDS011;10499;47.494;7.608;2023-02-26T04:38:48;0.40;;;0.40;;
20679;SDS011;10499;47.494;7.608;2023-02-26T04:41:14;0.40;;;0.40;;
20679;SDS011;10499;47.494;7.608;2023-02-26T04:43:40;0.40;;;0.40;;
20679;SDS011;10499;47.494;7.608;2023-02-26T04:46:05;0.43;;;0.43;;
20679;SDS011;10499;47.494;7.608;2023-02-26T04:48:31;0.40;;;0.40;;
20679;SDS011;10499;47.494;7.608;2023-02-26T04:50:56;0.40;;;0.40;;
20679;SDS011;10499;47.494;7.608;2023-02-26T04:53:22;0.40;;;0.40;;
20679;SDS011;10499;47.494;7.608;2023-02-26T04:55:48;0.40;;;0.40;;
20679;SDS011;10499;47.494;7.608;2023-02-26T04:58:14;0.40;;;0.40;;
20679;SDS011;10499;47.494;7.608;2023-02-26T05:00:40;0.40;;;0.40;;
20679;SDS011;10499;47.494;7.608;2023-02-26T05:03:05;0.40;;;0.40;;
20679;SDS011;10499;47.494;7.608;2023-02-26T05:05:33;0.40;;;0.40;;
20679;SDS011;10499;47.494;7.608;2023-02-26T05:07:59;0.47;;;0.47;;
20679;SDS011;10499;47.494;7.608;2023-02-26T05:10:25;0.40;;;0.40;;
20679;SDS011;10499;47.494;7.608;2023-02-26T05:12:51;0.40;;;0.40;;
20679;SDS011;10499;47.494;7.608;2023-02-26T05:15:17;0.40;;;0.40;;
20679;SDS011;10499;47.494;7.608;2023-02-26T05:17:43;0.40;;;0.40;;
20679;SDS011;10499;47.494;7.608;2023-02-26T05:20:09;0.40;;;0.40;;
20679;SDS011;10499;47.494;7.608;2023-02-26T05:22:38;0.40;;;0.40;;
20679;SDS011;10499;47.494;7.608;2023-02-26T05:25:04;0.43;;;0.43;;
20679;SDS011;10499;47.494;7.608;2023-02-26T05:27:31;0.40;;;0.40;;
20679;SDS011;10499;47.494;7.608;2023-02-26T05:29:57;0.40;;;0.40;;
20679;SDS011;10499;47.494;7.608;2023-02-26T05:32:23;0.40;;;0.40;;
20679;SDS011;10499;47.494;7.608;2023-02-26T05:34:48;0.40;;;0.40;;
20679;SDS011;10499;47.494;7.608;2023-02-26T05:37:14;0.40;;;0.40;;
20679;SDS011;10499;47.494;7.608;2023-02-26T05:39:40;0.43;;;0.43;;
20679;SDS011;10499;47.494;7.608;2023-02-26T05:42:06;0.40;;;0.40;;
20679;SDS011;10499;47.494;7.608;2023-02-26T05:44:32;0.40;;;0.40;;
20679;SDS011;10499;47.494;7.608;2023-02-26T05:46:59;0.40;;;0.40;;
20679;SDS011;10499;47.494;7.608;2023-02-26T05:49:25;0.40;;;0.40;;
20679;SDS011;10499;47.494;7.608;2023-02-26T05:51:51;0.40;;;0.40;;
20679;SDS011;10499;47.494;7.608;2023-02-26T05:54:17;0.40;;;0.40;;
20679;SDS011;10499;47.494;7.608;2023-02-26T05:56:42;0.40;;;0.40;;
20679;SDS011;10499;47.494;7.608;2023-02-26T05:59:08;0.40;;;0.40;;
20679;SDS011;10499;47.494;7.608;2023-02-26T06:01:34;0.40;;;0.40;;
20679;SDS011;10499;47.494;7.608;2023-02-26T06:04:01;0.40;;;0.40;;
20679;SDS011;10499;47.494;7.608;2023-02-26T06:06:27;0.50;;;0.50;;
20679;SDS011;10499;47.494;7.608;2023-02-26T06:08:53;0.40;;;0.40;;
20679;SDS011;10499;47.494;7.608;2023-02-26T06:11:19;0.40;;;0.40;;
20679;SDS011;10499;47.494;7.608;2023-02-26T06:13:45;0.47;;;0.47;;
20679;SDS011;10499;47.494;7.608;2023-02-26T06:16:10;0.40;;;0.40;;
20679;SDS011;10499;47.494;7.608;2023-02-26T06:18:36;0.40;;;0.40;;
20679;SDS011;10499;47.494;7.608;2023-02-26T06:21:02;0.50;;;0.50;;
20679;SDS011;10499;47.494;7.608;2023-02-26T06:23:28;0.40;;;0.40;;
20679;SDS011;10499;47.494;7.608;2023-02-26T06:25:53;0.40;;;0.40;;
20679;SDS011;10499;47.494;7.608;2023-02-26T06:28:19;0.40;;;0.40;;
20679;SDS011;10499;47.494;7.608;2023-02-26T06:30:45;0.40;;;0.40;;
20679;SDS011;10499;47.494;7.608;2023-02-26T06:33:11;0.40;;;0.40;;
20679;SDS011;10499;47.494;7.608;2023-02-26T06:35:37;0.40;;;0.40;;
20679;SDS011;10499;47.494;7.608;2023-02-26T06:38:03;0.40;;;0.40;;
20679;SDS011;10499;47.494;7.608;2023-02-26T06:40:28;0.40;;;0.40;;
20679;SDS011;10499;47.494;7.608;2023-02-26T06:42:55;0.40;;;0.40;;
20679;SDS011;10499;47.494;7.608;2023-02-26T06:45:21;0.40;;;0.40;;
20679;SDS011;10499;47.494;7.608;2023-02-26T06:47:49;0.43;;;0.43;;
20679;SDS011;10499;47.494;7.608;2023-02-26T06:50:15;0.40;;;0.40;;
20679;SDS011;10499;47.494;7.608;2023-02-26T06:52:41;0.40;;;0.40;;
20679;SDS011;10499;47.494;7.608;2023-02-26T06:55:07;0.40;;;0.40;;
20679;SDS011;10499;47.494;7.608;2023-02-26T06:57:33;0.40;;;0.40;;
20679;SDS011;10499;47.494;7.608;2023-02-26T06:59:58;0.43;;;0.43;;
20679;SDS011;10499;47.494;7.608;2023-02-26T07:02:25;0.43;;;0.43;;
20679;SDS011;10499;47.494;7.608;2023-02-26T07:04:50;0.40;;;0.40;;
20679;SDS011;10499;47.494;7.608;2023-02-26T07:07:16;0.40;;;0.40;;
20679;SDS011;10499;47.494;7.608;2023-02-26T07:09:43;0.40;;;0.40;;
20679;SDS011;10499;47.494;7.608;2023-02-26T07:12:08;0.40;;;0.40;;
20679;SDS011;10499;47.494;7.608;2023-02-26T07:14:35;0.40;;;0.40;;
20679;SDS011;10499;47.494;7.608;2023-02-26T07:17:01;0.40;;;0.40;;
20679;SDS011;10499;47.494;7.608;2023-02-26T07:19:26;0.40;;;0.40;;
20679;SDS011;10499;47.494;7.608;2023-02-26T07:21:52;0.40;;;0.40;;
20679;SDS011;10499;47.494;7.608;2023-02-26T07:24:19;0.40;;;0.40;;
20679;SDS011;10499;47.494;7.608;2023-02-26T07:26:45;0.40;;;0.40;;
20679;SDS011;10499;47.494;7.608;2023-02-26T07:29:10;0.40;;;0.40;;
20679;SDS011;10499;47.494;7.608;2023-02-26T07:31:36;0.40;;;0.40;;
20679;SDS011;10499;47.494;7.608;2023-02-26T07:34:02;0.40;;;0.40;;
20679;SDS011;10499;47.494;7.608;2023-02-26T07:36:28;0.40;;;0.40;;
20679;SDS011;10499;47.494;7.608;2023-02-26T07:38:53;0.30;;;0.30;;
20679;SDS011;10499;47.494;7.608;2023-02-26T07:41:19;0.40;;;0.40;;
20679;SDS011;10499;47.494;7.608;2023-02-26T07:43:45;0.40;;;0.40;;
20679;SDS011;10499;47.494;7.608;2023-02-26T07:46:10;0.40;;;0.40;;
20679;SDS011;10499;47.494;7.608;2023-02-26T07:48:36;0.40;;;0.40;;
20679;SDS011;10499;47.494;7.608;2023-02-26T07:51:02;0.40;;;0.40;;
20679;SDS011;10499;47.494;7.608;2023-02-26T07:53:28;0.40;;;0.40;;
20679;SDS011;10499;47.494;7.608;2023-02-26T07:55:54;0.30;;;0.30;;
20679;SDS011;10499;47.494;7.608;2023-02-26T07:58:20;0.30;;;0.30;;
20679;SDS011;10499;47.494;7.608;2023-02-26T08:00:46;0.40;;;0.40;;
20679;SDS011;10499;47.494;7.608;2023-02-26T08:03:11;0.40;;;0.40;;
20679;SDS011;10499;47.494;7.608;2023-02-26T08:05:37;0.40;;;0.40;;
20679;SDS011;10499;47.494;7.608;2023-02-26T08:08:03;0.30;;;0.30;;
20679;SDS011;10499;47.494;7.608;2023-02-26T08:10:29;0.30;;;0.30;;
20679;SDS011;10499;47.494;7.608;2023-02-26T08:12:54;0.20;;;0.20;;
20679;SDS011;10499;47.494;7.608;2023-02-26T08:15:20;0.30;;;0.30;;
20679;SDS011;10499;47.494;7.608;2023-02-26T08:17:46;0.20;;;0.20;;
20679;SDS011;10499;47.494;7.608;2023-02-26T08:20:11;0.20;;;0.20;;
20679;SDS011;10499;47.494;7.608;2023-02-26T08:22:39;0.20;;;0.20;;
20679;SDS011;10499;47.494;7.608;2023-02-26T08:25:05;0.30;;;0.30;;
20679;SDS011;10499;47.494;7.608;2023-02-26T08:27:31;0.30;;;0.30;;
20679;SDS011;10499;47.494;7.608;2023-02-26T08:29:57;0.20;;;0.20;;
20679;SDS011;10499;47.494;7.608;2023-02-26T08:32:23;0.30;;;0.30;;
20679;SDS011;10499;47.494;7.608;2023-02-26T08:34:52;0.30;;;0.30;;
20679;SDS011;10499;47.494;7.608;2023-02-26T08:37:17;0.20;;;0.20;;
20679;SDS011;10499;47.494;7.608;2023-02-26T08:39:46;0.30;;;0.30;;
20679;SDS011;10499;47.494;7.608;2023-02-26T08:42:11;0.20;;;0.20;;
20679;SDS011;10499;47.494;7.608;2023-02-26T08:44:40;0.20;;;0.20;;
20679;SDS011;10499;47.494;7.608;2023-02-26T08:47:06;0.20;;;0.20;;
20679;SDS011;10499;47.494;7.608;2023-02-26T08:49:32;0.20;;;0.20;;
20679;SDS011;10499;47.494;7.608;2023-02-26T08:51:58;0.20;;;0.20;;
20679;SDS011;10499;47.494;7.608;2023-02-26T08:54:23;0.20;;;0.20;;
20679;SDS011;10499;47.494;7.608;2023-02-26T08:56:49;0.20;;;0.20;;
20679;SDS011;10499;47.494;7.608;2023-02-26T08:59:17;0.20;;;0.20;;
20679;SDS011;10499;47.494;7.608;2023-02-26T09:01:43;0.20;;;0.20;;
20679;SDS011;10499;47.494;7.608;2023-02-26T09:04:09;0.20;;;0.20;;
20679;SDS011;10499;47.494;7.608;2023-02-26T09:06:34;0.20;;;0.20;;
20679;SDS011;10499;47.494;7.608;2023-02-26T09:09:00;0.20;;;0.20;;
20679;SDS011;10499;47.494;7.608;2023-02-26T09:11:26;0.10;;;0.10;;
20679;SDS011;10499;47.494;7.608;2023-02-26T09:13:54;0.10;;;0.10;;
20679;SDS011;10499;47.494;7.608;2023-02-26T09:16:20;0.20;;;0.20;;
20679;SDS011;10499;47.494;7.608;2023-02-26T09:18:46;0.10;;;0.10;;
20679;SDS011;10499;47.494;7.608;2023-02-26T09:21:11;0.10;;;0.10;;
20679;SDS011;10499;47.494;7.608;2023-02-26T09:23:37;0.20;;;0.20;;
20679;SDS011;10499;47.494;7.608;2023-02-26T09:26:03;0.10;;;0.10;;
20679;SDS011;10499;47.494;7.608;2023-02-26T09:28:29;0.20;;;0.20;;
20679;SDS011;10499;47.494;7.608;2023-02-26T09:30:54;0.20;;;0.20;;
20679;SDS011;10499;47.494;7.608;2023-02-26T09:33:20;0.20;;;0.20;;
20679;SDS011;10499;47.494;7.608;2023-02-26T09:35:47;0.20;;;0.20;;
20679;SDS011;10499;47.494;7.608;2023-02-26T09:38:13;0.10;;;0.10;;
20679;SDS011;10499;47.494;7.608;2023-02-26T09:40:57;0.20;;;0.20;;
20679;SDS011;10499;47.494;7.608;2023-02-26T09:46:05;0.20;;;0.20;;
20679;SDS011;10499;47.494;7.608;2023-02-26T09:48:46;0.20;;;0.20;;
20679;SDS011;10499;47.494;7.608;2023-02-26T09:51:15;0.10;;;0.10;;
20679;SDS011;10499;47.494;7.608;2023-02-26T09:53:45;0.10;;;0.10;;
20679;SDS011;10499;47.494;7.608;2023-02-26T09:56:17;0.20;;;0.20;;
20679;SDS011;10499;47.494;7.608;2023-02-26T09:58:48;0.20;;;0.20;;
20679;SDS011;10499;47.494;7.608;2023-02-26T10:07:10;0.20;;;0.20;;
20679;SDS011;10499;47.494;7.608;2023-02-26T10:12:11;0.20;;;0.20;;
20679;SDS011;10499;47.494;7.608;2023-02-26T10:14:57;0.20;;;0.20;;
20679;SDS011;10499;47.494;7.608;2023-02-26T10:17:34;0.30;;;0.30;;
20679;SDS011;10499;47.494;7.608;2023-02-26T10:22:59;0.30;;;0.30;;
20679;SDS011;10499;47.494;7.608;2023-02-26T10:26:00;0.30;;;0.30;;
20679;SDS011;10499;47.494;7.608;2023-02-26T10:33:50;0.30;;;0.30;;
20679;SDS011;10499;47.494;7.608;2023-02-26T10:38:48;0.30;;;0.30;;
20679;SDS011;10499;47.494;7.608;2023-02-26T10:41:17;0.30;;;0.30;;
20679;SDS011;10499;47.494;7.608;2023-02-26T10:43:51;0.30;;;0.30;;
20679;SDS011;10499;47.494;7.608;2023-02-26T10:46:33;0.20;;;0.20;;
20679;SDS011;10499;47.494;7.608;2023-02-26T10:51:55;0.30;;;0.30;;
20679;SDS011;10499;47.494;7.608;2023-02-26T10:57:01;0.30;;;0.30;;
20679;SDS011;10499;47.494;7.608;2023-02-26T10:59:28;0.30;;;0.30;;
20679;SDS011;10499;47.494;7.608;2023-02-26T11:01:54;0.30;;;0.30;;
20679;SDS011;10499;47.494;7.608;2023-02-26T11:04:21;0.20;;;0.20;;
20679;SDS011;10499;47.494;7.608;2023-02-26T11:06:51;0.30;;;0.30;;
20679;SDS011;10499;47.494;7.608;2023-02-26T11:09:21;0.30;;;0.30;;
20679;SDS011;10499;47.494;7.608;2023-02-26T11:11:51;0.30;;;0.30;;
20679;SDS011;10499;47.494;7.608;2023-02-26T11:14:21;0.30;;;0.30;;
20679;SDS011;10499;47.494;7.608;2023-02-26T11:16:57;0.30;;;0.30;;
20679;SDS011;10499;47.494;7.608;2023-02-26T11:19:31;0.30;;;0.30;;
20679;SDS011;10499;47.494;7.608;2023-02-26T11:22:00;0.30;;;0.30;;
20679;SDS011;10499;47.494;7.608;2023-02-26T11:24:35;1.23;;;0.30;;
20679;SDS011;10499;47.494;7.608;2023-02-26T11:27:13;0.30;;;0.30;;
20679;SDS011;10499;47.494;7.608;2023-02-26T11:29:48;0.30;;;0.30;;
20679;SDS011;10499;47.494;7.608;2023-02-26T11:32:23;0.30;;;0.30;;
20679;SDS011;10499;47.494;7.608;2023-02-26T11:34:57;0.30;;;0.30;;
20679;SDS011;10499;47.494;7.608;2023-02-26T11:37:27;0.30;;;0.30;;
20679;SDS011;10499;47.494;7.608;2023-02-26T11:40:03;0.20;;;0.20;;
20679;SDS011;10499;47.494;7.608;2023-02-26T11:42:37;0.20;;;0.20;;
20679;SDS011;10499;47.494;7.608;2023-02-26T11:45:05;0.20;;;0.20;;
20679;SDS011;10499;47.494;7.608;2023-02-26T11:47:31;0.30;;;0.30;;
20679;SDS011;10499;47.494;7.608;2023-02-26T11:50:02;0.30;;;0.30;;
20679;SDS011;10499;47.494;7.608;2023-02-26T11:52:35;0.30;;;0.30;;
20679;SDS011;10499;47.494;7.608;2023-02-26T11:55:18;0.30;;;0.30;;
20679;SDS011;10499;47.494;7.608;2023-02-26T11:57:45;0.30;;;0.30;;
20679;SDS011;10499;47.494;7.608;2023-02-26T12:00:18;0.30;;;0.30;;
20679;SDS011;10499;47.494;7.608;2023-02-26T12:02:47;0.30;;;0.30;;
20679;SDS011;10499;47.494;7.608;2023-02-26T12:05:14;0.30;;;0.30;;
20679;SDS011;10499;47.494;7.608;2023-02-26T12:07:41;0.30;;;0.30;;
20679;SDS011;10499;47.494;7.608;2023-02-26T12:10:17;0.30;;;0.30;;
20679;SDS011;10499;47.494;7.608;2023-02-26T12:15:41;0.30;;;0.30;;
20679;SDS011;10499;47.494;7.608;2023-02-26T12:26:33;0.30;;;0.30;;
20679;SDS011;10499;47.494;7.608;2023-02-26T12:45:34;0.30;;;0.30;;
20679;SDS011;10499;47.494;7.608;2023-02-26T12:53:55;0.30;;;0.30;;
20679;SDS011;10499;47.494;7.608;2023-02-26T13:02:05;0.30;;;0.30;;
20679;SDS011;10499;47.494;7.608;2023-02-26T13:10:21;0.30;;;0.30;;
20679;SDS011;10499;47.494;7.608;2023-02-26T13:26:40;0.30;;;0.30;;
20679;SDS011;10499;47.494;7.608;2023-02-26T13:29:15;0.33;;;0.33;;
20679;SDS011;10499;47.494;7.608;2023-02-26T13:32:01;0.30;;;0.30;;
20679;SDS011;10499;47.494;7.608;2023-02-26T13:34:56;0.30;;;0.30;;
20679;SDS011;10499;47.494;7.608;2023-02-26T13:37:32;0.30;;;0.30;;
20679;SDS011;10499;47.494;7.608;2023-02-26T13:42:55;0.30;;;0.30;;
20679;SDS011;10499;47.494;7.608;2023-02-26T13:51:11;0.30;;;0.30;;
20679;SDS011;10499;47.494;7.608;2023-02-26T13:53:50;0.30;;;0.30;;
20679;SDS011;10499;47.494;7.608;2023-02-26T13:59:02;0.30;;;0.30;;
20679;SDS011;10499;47.494;7.608;2023-02-26T14:01:32;0.30;;;0.30;;
20679;SDS011;10499;47.494;7.608;2023-02-26T14:06:46;0.30;;;0.30;;
20679;SDS011;10499;47.494;7.608;2023-02-26T14:16:49;0.40;;;0.40;;
20679;SDS011;10499;47.494;7.608;2023-02-26T14:21:51;0.30;;;0.30;;
20679;SDS011;10499;47.494;7.608;2023-02-26T14:27:29;0.30;;;0.30;;
20679;SDS011;10499;47.494;7.608;2023-02-26T14:29:59;0.30;;;0.30;;
20679;SDS011;10499;47.494;7.608;2023-02-26T14:32:29;0.33;;;0.33;;
20679;SDS011;10499;47.494;7.608;2023-02-26T14:35:00;0.30;;;0.30;;
20679;SDS011;10499;47.494;7.608;2023-02-26T14:37:38;0.40;;;0.40;;
20679;SDS011;10499;47.494;7.608;2023-02-26T14:40:13;0.40;;;0.40;;
20679;SDS011;10499;47.494;7.608;2023-02-26T14:47:41;0.40;;;0.40;;
20679;SDS011;10499;47.494;7.608;2023-02-26T14:50:13;0.37;;;0.37;;
20679;SDS011;10499;47.494;7.608;2023-02-26T14:52:51;0.40;;;0.40;;
20679;SDS011;10499;47.494;7.608;2023-02-26T14:55:34;0.40;;;0.40;;
20679;SDS011;10499;47.494;7.608;2023-02-26T15:11:48;0.40;;;0.40;;
20679;SDS011;10499;47.494;7.608;2023-02-26T15:20:07;0.30;;;0.30;;
20679;SDS011;10499;47.494;7.608;2023-02-26T15:27:51;0.40;;;0.40;;
20679;SDS011;10499;47.494;7.608;2023-02-26T15:30:17;0.30;;;0.30;;
20679;SDS011;10499;47.494;7.608;2023-02-26T15:32:43;0.30;;;0.30;;
20679;SDS011;10499;47.494;7.608;2023-02-26T15:37:41;0.30;;;0.30;;
20679;SDS011;10499;47.494;7.608;2023-02-26T15:40:07;0.30;;;0.30;;
20679;SDS011;10499;47.494;7.608;2023-02-26T15:42:35;0.30;;;0.30;;
20679;SDS011;10499;47.494;7.608;2023-02-26T15:45:04;0.30;;;0.30;;
20679;SDS011;10499;47.494;7.608;2023-02-26T15:47:43;0.30;;;0.30;;
20679;SDS011;10499;47.494;7.608;2023-02-26T15:50:12;0.30;;;0.30;;
20679;SDS011;10499;47.494;7.608;2023-02-26T15:52:40;0.30;;;0.30;;
20679;SDS011;10499;47.494;7.608;2023-02-26T15:55:06;0.30;;;0.30;;
20679;SDS011;10499;47.494;7.608;2023-02-26T15:57:38;0.30;;;0.30;;
20679;SDS011;10499;47.494;7.608;2023-02-26T16:00:08;0.30;;;0.30;;
20679;SDS011;10499;47.494;7.608;2023-02-26T16:02:40;0.30;;;0.30;;
20679;SDS011;10499;47.494;7.608;2023-02-26T16:05:07;0.30;;;0.30;;
20679;SDS011;10499;47.494;7.608;2023-02-26T16:07:37;0.30;;;0.30;;
20679;SDS011;10499;47.494;7.608;2023-02-26T16:10:04;0.37;;;0.37;;
20679;SDS011;10499;47.494;7.608;2023-02-26T16:12:39;0.30;;;0.30;;
20679;SDS011;10499;47.494;7.608;2023-02-26T16:15:12;0.40;;;0.40;;
20679;SDS011;10499;47.494;7.608;2023-02-26T16:17:41;0.30;;;0.30;;
20679;SDS011;10499;47.494;7.608;2023-02-26T16:20:16;0.30;;;0.30;;
20679;SDS011;10499;47.494;7.608;2023-02-26T16:22:46;0.30;;;0.30;;
20679;SDS011;10499;47.494;7.608;2023-02-26T16:25:30;0.40;;;0.40;;
20679;SDS011;10499;47.494;7.608;2023-02-26T16:28:09;0.40;;;0.40;;
20679;SDS011;10499;47.494;7.608;2023-02-26T16:30:41;0.30;;;0.30;;
20679;SDS011;10499;47.494;7.608;2023-02-26T16:33:11;0.37;;;0.37;;
20679;SDS011;10499;47.494;7.608;2023-02-26T16:35:43;0.30;;;0.30;;
20679;SDS011;10499;47.494;7.608;2023-02-26T16:38:24;0.40;;;0.40;;
20679;SDS011;10499;47.494;7.608;2023-02-26T16:41:03;0.30;;;0.30;;
20679;SDS011;10499;47.494;7.608;2023-02-26T16:43:34;0.30;;;0.30;;
20679;SDS011;10499;47.494;7.608;2023-02-26T16:46:09;0.40;;;0.40;;
20679;SDS011;10499;47.494;7.608;2023-02-26T16:51:20;0.40;;;0.40;;
20679;SDS011;10499;47.494;7.608;2023-02-26T16:53:55;0.40;;;0.40;;
20679;SDS011;10499;47.494;7.608;2023-02-26T16:56:31;0.40;;;0.40;;
20679;SDS011;10499;47.494;7.608;2023-02-26T16:59:03;0.40;;;0.40;;
20679;SDS011;10499;47.494;7.608;2023-02-26T17:01:47;0.40;;;0.40;;
20679;SDS011;10499;47.494;7.608;2023-02-26T17:04:18;0.40;;;0.40;;
20679;SDS011;10499;47.494;7.608;2023-02-26T17:06:48;0.40;;;0.40;;
20679;SDS011;10499;47.494;7.608;2023-02-26T17:12:02;0.40;;;0.40;;
20679;SDS011;10499;47.494;7.608;2023-02-26T17:14:31;0.40;;;0.40;;
20679;SDS011;10499;47.494;7.608;2023-02-26T17:17:05;0.40;;;0.40;;
20679;SDS011;10499;47.494;7.608;2023-02-26T17:19:30;0.40;;;0.40;;
20679;SDS011;10499;47.494;7.608;2023-02-26T17:21:56;0.40;;;0.40;;
20679;SDS011;10499;47.494;7.608;2023-02-26T17:24:29;0.37;;;0.37;;
20679;SDS011;10499;47.494;7.608;2023-02-26T17:27:05;0.40;;;0.40;;
20679;SDS011;10499;47.494;7.608;2023-02-26T17:29:38;0.40;;;0.40;;
20679;SDS011;10499;47.494;7.608;2023-02-26T17:32:09;0.40;;;0.40;;
20679;SDS011;10499;47.494;7.608;2023-02-26T17:34:42;0.40;;;0.40;;
20679;SDS011;10499;47.494;7.608;2023-02-26T17:37:11;0.40;;;0.40;;
20679;SDS011;10499;47.494;7.608;2023-02-26T17:39:38;0.40;;;0.40;;
20679;SDS011;10499;47.494;7.608;2023-02-26T17:42:11;0.40;;;0.40;;
20679;SDS011;10499;47.494;7.608;2023-02-26T17:44:38;0.40;;;0.40;;
20679;SDS011;10499;47.494;7.608;2023-02-26T17:47:04;0.40;;;0.40;;
20679;SDS011;10499;47.494;7.608;2023-02-26T17:49:31;0.40;;;0.40;;
20679;SDS011;10499;47.494;7.608;2023-02-26T17:51:56;0.40;;;0.40;;
20679;SDS011;10499;47.494;7.608;2023-02-26T17:54:22;0.40;;;0.40;;
20679;SDS011;10499;47.494;7.608;2023-02-26T17:56:48;0.40;;;0.40;;
20679;SDS011;10499;47.494;7.608;2023-02-26T17:59:14;0.40;;;0.40;;
20679;SDS011;10499;47.494;7.608;2023-02-26T18:01:39;0.40;;;0.40;;
20679;SDS011;10499;47.494;7.608;2023-02-26T18:04:05;0.40;;;0.40;;
20679;SDS011;10499;47.494;7.608;2023-02-26T18:06:32;0.40;;;0.40;;
20679;SDS011;10499;47.494;7.608;2023-02-26T18:09:00;0.40;;;0.40;;
20679;SDS011;10499;47.494;7.608;2023-02-26T18:11:28;0.40;;;0.40;;
20679;SDS011;10499;47.494;7.608;2023-02-26T18:13:54;0.40;;;0.40;;
20679;SDS011;10499;47.494;7.608;2023-02-26T18:16:22;0.40;;;0.40;;